createdAt,value
2022-12-31T00:00:22.802Z,100297.81
2022-12-31T00:05:25.791Z,100313.53
2022-12-31T00:10:29.257Z,100302.94
2022-12-31T00:15:34.939Z,100305.38
2022-12-31T00:20:40.630Z,100308.88
2022-12-31T00:25:43.818Z,100325.38
2022-12-31T00:30:48.258Z,100320.91
2022-12-31T00:35:51.189Z,100321.66
2022-12-31T00:40:54.244Z,100310.16
2022-12-31T00:45:58.660Z,100309.19
2022-12-31T00:51:03.321Z,100312.56
2022-12-31T00:56:08.474Z,100308.06
2022-12-31T01:01:14.383Z,100296.63
2022-12-31T01:06:17.834Z,100304.44
2022-12-31T01:11:22.635Z,100300.91
2022-12-31T01:16:30.262Z,100283.22
2022-12-31T01:21:36.515Z,100290.28
2022-12-31T01:26:40.303Z,100306.00
2022-12-31T01:31:44.958Z,100318.31
2022-12-31T01:36:47.983Z,100326.97
2022-12-31T01:41:51.054Z,100326.06
2022-12-31T01:46:58.846Z,100344.34
2022-12-31T01:52:08.572Z,100330.25
2022-12-31T01:57:12.262Z,100329.31
2022-12-31T02:02:17.342Z,100318.63
2022-12-31T02:07:20.493Z,100301.06
2022-12-31T02:12:24.128Z,100322.97
2022-12-31T02:17:36.573Z,100320.34
2022-12-31T02:23:05.181Z,100310.59
2022-12-31T02:28:21.498Z,100308.69
2022-12-31T02:33:33.090Z,100310.34
2022-12-31T02:38:41.627Z,100318.97
2022-12-31T02:43:47.870Z,100320.66
2022-12-31T02:49:02.037Z,100334.78
2022-12-31T02:54:20.196Z,100329.53
2022-12-31T02:59:47.027Z,100322.41
2022-12-31T03:04:53.611Z,100321.41
2022-12-31T03:09:56.772Z,100337.91
2022-12-31T03:15:00.318Z,100345.75
2022-12-31T03:20:23.515Z,100338.69
2022-12-31T03:25:35.724Z,100333.34
2022-12-31T03:30:41.526Z,100356.09
2022-12-31T03:35:47.942Z,100345.50
2022-12-31T03:40:52.981Z,100320.84
2022-12-31T03:45:59.716Z,100333.09
2022-12-31T03:51:04.240Z,100325.31
2022-12-31T03:56:07.672Z,100327.03
2022-12-31T04:01:10.788Z,100320.13
2022-12-31T04:06:15.170Z,100317.59
2022-12-31T04:11:21.042Z,100293.03
2022-12-31T04:16:24.268Z,100304.53
2022-12-31T04:21:34.654Z,100294.78
2022-12-31T04:26:38.697Z,100290.53
2022-12-31T04:31:42.089Z,100266.78
2022-12-31T04:36:46.522Z,100300.22
2022-12-31T04:41:49.471Z,100299.47
2022-12-31T04:46:52.506Z,100299.47
2022-12-31T04:51:56.943Z,100305.81
2022-12-31T04:57:00.077Z,100293.56
2022-12-31T05:02:03.342Z,100284.88
2022-12-31T05:07:07.967Z,100308.69
2022-12-31T05:12:10.931Z,100300.88
2022-12-31T05:17:13.865Z,100300.00
2022-12-31T05:22:30.481Z,100317.56
2022-12-31T05:27:34.199Z,100324.75
2022-12-31T05:32:37.443Z,100336.22
2022-12-31T05:37:42.268Z,100331.88
2022-12-31T05:42:45.475Z,100316.94
2022-12-31T05:47:48.578Z,100334.56
2022-12-31T05:52:53.779Z,100324.97
2022-12-31T05:57:56.854Z,100329.47
2022-12-31T06:03:00.102Z,100328.59
2022-12-31T06:08:04.879Z,100341.81
2022-12-31T06:13:08.737Z,100326.97
2022-12-31T06:18:12.516Z,100337.63
2022-12-31T06:23:16.957Z,100347.47
2022-12-31T06:28:20.766Z,100362.69
2022-12-31T06:33:23.852Z,100355.06
2022-12-31T06:38:29.934Z,100350.03
2022-12-31T06:43:33.164Z,100333.53
2022-12-31T06:48:36.601Z,100357.63
2022-12-31T06:53:41.403Z,100342.03
2022-12-31T06:58:45.978Z,100348.31
2022-12-31T07:04:00.099Z,100353.66
2022-12-31T07:09:12.128Z,100363.56
2022-12-31T07:14:28.261Z,100361.88
2022-12-31T07:19:51.039Z,100354.03
2022-12-31T07:24:59.023Z,100376.88
2022-12-31T07:30:07.691Z,100400.78
2022-12-31T07:35:18.319Z,100372.78
2022-12-31T07:40:29.660Z,100360.50
2022-12-31T07:45:39.778Z,100364.09
2022-12-31T07:50:43.388Z,100372.06
2022-12-31T07:55:48.045Z,100383.31
2022-12-31T08:00:54.115Z,100377.13
2022-12-31T08:06:09.498Z,100406.00
2022-12-31T08:11:23.627Z,100415.56
2022-12-31T08:16:27.251Z,100425.13
2022-12-31T08:21:44.733Z,100437.31
2022-12-31T08:27:01.237Z,100471.47
2022-12-31T08:32:13.894Z,100469.63
2022-12-31T08:37:24.848Z,100476.66
2022-12-31T08:42:38.015Z,100496.84
2022-12-31T08:47:56.421Z,100482.84
2022-12-31T08:53:03.269Z,100496.09
2022-12-31T08:58:23.583Z,100508.53
2022-12-31T09:03:56.949Z,100510.38
2022-12-31T09:09:08.029Z,100520.28
2022-12-31T09:14:31.826Z,100521.41
2022-12-31T09:19:38.087Z,100511.16
2022-12-31T09:24:42.534Z,100516.63
2022-12-31T09:29:57.334Z,100518.59
2022-12-31T09:35:12.051Z,100529.41
2022-12-31T09:40:47.474Z,100556.03
2022-12-31T09:46:16.070Z,100560.53
2022-12-31T09:51:31.433Z,100548.38
2022-12-31T09:56:37.475Z,100558.34
2022-12-31T10:01:50.994Z,100551.56
2022-12-31T10:07:06.672Z,100549.09
2022-12-31T10:12:44.704Z,100550.22
2022-12-31T10:18:00.031Z,100546.88
2022-12-31T10:23:18.679Z,100554.00
2022-12-31T10:28:32.690Z,100555.97
2022-12-31T10:33:44.262Z,100562.16
2022-12-31T10:39:00.799Z,100566.47
2022-12-31T10:44:47.185Z,100565.41
2022-12-31T10:50:34.879Z,100559.22
2022-12-31T10:56:07.664Z,100549.34
2022-12-31T11:01:18.719Z,100539.72
2022-12-31T11:07:01.593Z,100546.03
2022-12-31T11:12:20.982Z,100566.44
2022-12-31T11:17:38.174Z,100563.41
2022-12-31T11:22:59.528Z,100591.00
2022-12-31T11:28:31.622Z,100575.22
2022-12-31T11:33:50.622Z,100586.41
2022-12-31T11:39:01.535Z,100576.47
2022-12-31T11:44:19.350Z,100572.09
2022-12-31T11:49:38.906Z,100561.47
2022-12-31T11:55:00.694Z,100591.56
2022-12-31T12:00:16.761Z,100562.53
2022-12-31T12:05:21.964Z,100570.38
2022-12-31T12:10:35.223Z,100565.06
2022-12-31T12:15:43.865Z,100555.41
2022-12-31T12:20:47.596Z,100552.78
2022-12-31T12:25:51.067Z,100566.06
2022-12-31T12:30:58.924Z,100552.81
2022-12-31T12:36:10.201Z,100564.31
2022-12-31T12:41:21.633Z,100554.63
2022-12-31T12:46:33.265Z,100565.13
2022-12-31T12:51:58.093Z,100560.78
2022-12-31T12:57:09.288Z,100574.94
2022-12-31T13:02:37.241Z,100568.66
2022-12-31T13:07:52.599Z,100555.19
2022-12-31T13:18:41.720Z,100557.72
2022-12-31T13:23:51.348Z,100554.97
2022-12-31T13:28:55.281Z,100560.38
2022-12-31T13:34:03.967Z,100569.25
2022-12-31T13:39:13.540Z,100576.41
2022-12-31T13:44:25.053Z,100569.41
2022-12-31T13:49:34.766Z,100567.66
2022-12-31T13:54:43.773Z,100592.38
2022-12-31T13:59:52.919Z,100573.97
2022-12-31T14:05:04.195Z,100588.91
2022-12-31T14:10:14.003Z,100603.00
2022-12-31T14:15:24.249Z,100596.72
2022-12-31T14:20:38.156Z,100589.59
2022-12-31T14:25:45.148Z,100601.84
2022-12-31T14:30:53.511Z,100584.97
2022-12-31T14:36:10.357Z,100590.28
2022-12-31T14:41:28.678Z,100591.16
2022-12-31T14:46:40.396Z,100597.34
2022-12-31T14:51:45.973Z,100600.00
2022-12-31T14:56:48.927Z,100600.88
2022-12-31T15:01:52.215Z,100604.47
2022-12-31T15:07:07.080Z,100605.31
2022-12-31T15:12:24.781Z,100598.25
2022-12-31T15:17:38.946Z,100584.13
2022-12-31T15:22:46.332Z,100598.28
2022-12-31T15:27:50.066Z,100586.88
2022-12-31T15:32:53.449Z,100596.50
2022-12-31T15:38:03.952Z,100585.88
2022-12-31T15:43:14.319Z,100583.28
2022-12-31T15:48:22.212Z,100592.06
2022-12-31T15:53:30.570Z,100582.34
2022-12-31T15:58:37.795Z,100589.47
2022-12-31T16:03:45.425Z,100597.34
2022-12-31T16:08:50.976Z,100589.41
2022-12-31T16:13:56.942Z,100593.69
2022-12-31T16:19:00.737Z,100559.31
2022-12-31T16:24:28.776Z,100560.06
2022-12-31T16:29:32.164Z,100559.13
2022-12-31T16:34:40.247Z,100567.09
2022-12-31T16:40:09.789Z,100555.56
2022-12-31T16:45:20.904Z,100565.19
2022-12-31T16:50:25.773Z,100548.38
2022-12-31T16:55:31.694Z,100539.34
2022-12-31T17:00:36.451Z,100560.50
2022-12-31T17:05:58.725Z,100571.00
2022-12-31T17:11:04.770Z,100543.63
2022-12-31T17:16:08.179Z,100538.34
2022-12-31T17:21:12.436Z,100538.38
2022-12-31T17:26:24.957Z,100531.22
2022-12-31T17:31:34.413Z,100551.44
2022-12-31T17:36:40.604Z,100530.47
2022-12-31T17:41:47.330Z,100530.50
2022-12-31T17:46:51.437Z,100554.44
2022-12-31T17:51:54.549Z,100558.09
2022-12-31T17:56:59.056Z,100550.22
2022-12-31T18:02:04.037Z,100559.06
2022-12-31T18:07:07.192Z,100547.66
2022-12-31T18:12:15.020Z,100545.00
2022-12-31T18:17:18.109Z,100547.53
2022-12-31T18:22:21.494Z,100544.06
2022-12-31T18:27:25.865Z,100546.69
2022-12-31T18:32:31.924Z,100563.38
2022-12-31T18:37:38.207Z,100556.34
2022-12-31T18:42:42.937Z,100551.88
2022-12-31T18:47:45.964Z,100559.81
2022-12-31T18:52:48.954Z,100558.72
2022-12-31T18:57:53.513Z,100577.09
2022-12-31T19:02:56.737Z,100572.81
2022-12-31T19:08:00.457Z,100594.88
2022-12-31T19:13:06.067Z,100592.13
2022-12-31T19:18:09.676Z,100599.19
2022-12-31T19:23:17.983Z,100585.94
2022-12-31T19:28:24.723Z,100590.19
2022-12-31T19:33:27.697Z,100590.88
2022-12-31T19:38:32.192Z,100603.16
2022-12-31T19:43:36.697Z,100598.81
2022-12-31T19:48:39.698Z,100602.47
2022-12-31T19:53:42.831Z,100603.25
2022-12-31T19:58:47.735Z,100611.16
2022-12-31T20:03:51.378Z,100610.41
2022-12-31T20:08:54.381Z,100619.19
2022-12-31T20:13:58.791Z,100623.69
2022-12-31T20:19:02.151Z,100622.84
2022-12-31T20:24:06.053Z,100619.38
2022-12-31T20:29:10.911Z,100622.97
2022-12-31T20:34:14.069Z,100627.41
2022-12-31T20:39:17.152Z,100625.59
2022-12-31T20:44:21.555Z,100622.06
2022-12-31T20:49:52.207Z,100616.97
2022-12-31T20:54:47.545Z,100618.72
2022-12-31T20:59:52.043Z,100618.72
2022-12-31T21:04:55.258Z,100637.31
2022-12-31T21:09:58.612Z,100643.56
2022-12-31T21:15:03.542Z,100672.69
2022-12-31T21:20:07.839Z,100662.22
2022-12-31T21:25:11.963Z,100672.81
2022-12-31T21:30:18.788Z,100641.84
2022-12-31T21:40:45.870Z,100667.41
2022-12-31T21:46:00.788Z,100668.28
2022-12-31T21:51:09.935Z,100670.88
2022-12-31T21:56:14.788Z,100669.16
2022-12-31T22:01:38.673Z,100678.13
2022-12-31T22:06:41.941Z,100670.16
2022-12-31T22:11:44.952Z,100676.28
2022-12-31T22:16:49.263Z,100678.03
2022-12-31T22:21:52.450Z,100671.78
2022-12-31T22:26:56.819Z,100684.22
2022-12-31T22:32:01.532Z,100681.59
2022-12-31T22:37:27.655Z,100691.16
2022-12-31T22:42:30.776Z,100692.94
2022-12-31T22:47:35.299Z,100714.19
2022-12-31T22:52:38.782Z,100700.81
2022-12-31T22:57:41.850Z,100705.19
2022-12-31T23:02:46.363Z,100718.34
2022-12-31T23:07:49.594Z,100725.31
2022-12-31T23:12:52.837Z,100743.78
2022-12-31T23:18:14.501Z,100753.47
2022-12-31T23:23:17.947Z,100736.91
2022-12-31T23:28:23.257Z,100730.72
2022-12-31T23:33:27.870Z,100738.78
2022-12-31T23:38:30.865Z,100723.78
2022-12-31T23:43:33.949Z,100731.69
2022-12-31T23:48:38.393Z,100749.41
2022-12-31T23:53:42.788Z,100741.41
2022-12-31T23:58:46.028Z,100741.63
